createdAt,value
2018-04-02T00:02:09.820Z,8.80
2018-04-02T00:04:39.630Z,10.63
2018-04-02T00:07:07.912Z,8.87
2018-04-02T00:09:36.271Z,7.50
2018-04-02T00:12:04.532Z,8.33
2018-04-02T00:14:33.555Z,8.70
2018-04-02T00:17:01.853Z,7.90
2018-04-02T00:19:30.105Z,9.00
2018-04-02T00:21:58.393Z,7.37
2018-04-02T00:24:26.668Z,7.53
2018-04-02T00:26:55.821Z,8.83
2018-04-02T00:29:24.445Z,8.13
2018-04-02T00:31:52.721Z,7.47
2018-04-02T00:34:20.964Z,8.20
2018-04-02T00:36:49.236Z,7.43
2018-04-02T00:39:17.505Z,7.20
2018-04-02T00:41:45.779Z,7.40
2018-04-02T00:44:14.028Z,10.73
2018-04-02T00:46:42.298Z,7.70
2018-04-02T00:49:10.557Z,8.50
2018-04-02T00:51:38.829Z,7.67
2018-04-02T00:54:07.113Z,8.27
2018-04-02T00:56:35.377Z,6.83
2018-04-02T00:59:04.408Z,9.63
2018-04-02T01:01:32.682Z,6.70
2018-04-02T01:04:02.425Z,9.07
2018-04-02T01:06:30.724Z,8.33
2018-04-02T01:08:59.103Z,10.13
2018-04-02T01:11:27.374Z,7.10
2018-04-02T01:13:56.434Z,7.43
2018-04-02T01:16:24.705Z,8.97
2018-04-02T01:18:52.986Z,7.97
2018-04-02T01:21:21.249Z,7.67
2018-04-02T01:23:50.868Z,7.83
2018-04-02T01:26:19.917Z,10.43
2018-04-02T01:28:48.179Z,7.13
2018-04-02T01:31:16.419Z,8.53
2018-04-02T01:33:44.688Z,7.70
2018-04-02T01:36:12.932Z,8.87
2018-04-02T01:38:41.964Z,7.97
2018-04-02T01:41:10.242Z,7.70
2018-04-02T01:43:38.517Z,7.20
2018-04-02T01:46:07.532Z,7.67
2018-04-02T01:48:35.820Z,7.23
2018-04-02T01:51:04.075Z,9.07
2018-04-02T01:53:32.356Z,9.33
2018-04-02T01:56:01.414Z,8.10
2018-04-02T01:58:29.705Z,9.87
2018-04-02T02:00:57.956Z,9.80
2018-04-02T02:03:26.283Z,11.57
2018-04-02T02:05:54.557Z,8.07
2018-04-02T02:08:23.688Z,7.50
2018-04-02T02:10:51.967Z,10.23
2018-04-02T02:13:21.186Z,8.00
2018-04-02T02:15:49.475Z,8.27
2018-04-02T02:18:17.753Z,8.33
2018-04-02T02:20:46.009Z,8.57
2018-04-02T02:23:14.287Z,6.63
2018-04-02T02:25:42.544Z,6.53
2018-04-02T02:28:10.820Z,7.90
2018-04-02T02:30:39.114Z,8.33
2018-04-02T02:33:07.380Z,8.40
2018-04-02T02:35:36.400Z,10.53
2018-04-02T02:38:04.644Z,8.23
2018-04-02T02:40:32.924Z,6.77
2018-04-02T02:43:01.175Z,7.37
2018-04-02T02:45:29.451Z,8.07
2018-04-02T02:47:57.720Z,9.40
2018-04-02T02:50:26.778Z,6.20
2018-04-02T02:52:55.031Z,8.63
2018-04-02T02:55:24.091Z,8.83
2018-04-02T02:57:52.352Z,7.43
2018-04-02T03:00:20.626Z,7.27
2018-04-02T03:02:48.882Z,11.20
2018-04-02T03:05:17.923Z,8.70
2018-04-02T03:07:46.870Z,6.07
2018-04-02T03:10:15.915Z,8.63
2018-04-02T03:12:44.952Z,8.87
2018-04-02T03:15:13.238Z,8.63
2018-04-02T03:17:41.491Z,6.77
2018-04-02T03:20:10.513Z,7.73
2018-04-02T03:22:39.526Z,9.33
2018-04-02T03:25:07.780Z,8.27
2018-04-02T03:27:36.028Z,7.80
2018-04-02T03:30:04.296Z,7.23
2018-04-02T03:32:32.562Z,8.37
2018-04-02T03:35:01.595Z,8.53
2018-04-02T03:37:29.852Z,9.93
2018-04-02T03:39:58.117Z,8.60
2018-04-02T03:42:26.413Z,7.37
2018-04-02T03:44:54.686Z,9.17
2018-04-02T03:47:22.936Z,8.67
2018-04-02T03:49:51.205Z,6.80
2018-04-02T03:52:20.227Z,9.43
2018-04-02T03:54:48.479Z,7.17
2018-04-02T03:57:16.731Z,8.67
2018-04-02T03:59:44.995Z,7.83
2018-04-02T04:02:13.235Z,9.93
2018-04-02T04:04:41.483Z,7.07
2018-04-02T04:07:09.779Z,6.00
2018-04-02T04:09:38.041Z,8.00
2018-04-02T04:12:06.300Z,5.83
2018-04-02T04:14:34.574Z,8.93
2018-04-02T04:17:03.611Z,7.17
2018-04-02T04:19:32.642Z,6.40
2018-04-02T04:22:00.936Z,6.07
2018-04-02T04:24:29.192Z,5.40
2018-04-02T04:26:57.472Z,5.87
2018-04-02T04:29:25.961Z,6.70
2018-04-02T04:31:54.221Z,7.50
2018-04-02T04:34:22.500Z,6.43
2018-04-02T04:36:50.768Z,7.10
2018-04-02T04:39:19.020Z,6.50
2018-04-02T04:41:47.296Z,5.70
2018-04-02T04:44:15.534Z,6.40
2018-04-02T04:46:43.795Z,5.87
2018-04-02T04:49:13.573Z,7.00
2018-04-02T04:51:41.842Z,6.90
2018-04-02T04:54:10.111Z,7.87
2018-04-02T04:56:39.147Z,7.10
2018-04-02T04:59:07.407Z,9.23
2018-04-02T05:01:36.437Z,6.20
2018-04-02T05:04:04.711Z,6.53
2018-04-02T05:06:33.777Z,6.17
2018-04-02T05:09:02.027Z,8.47
2018-04-02T05:11:30.289Z,6.77
2018-04-02T05:13:59.331Z,6.67
2018-04-02T05:16:27.644Z,7.60
2018-04-02T05:18:56.005Z,5.90
2018-04-02T05:21:24.284Z,7.60
2018-04-02T05:23:52.526Z,6.50
2018-04-02T05:26:22.315Z,10.13
2018-04-02T05:28:50.588Z,9.10
2018-04-02T05:31:18.865Z,6.23
2018-04-02T05:33:47.884Z,6.10
2018-04-02T05:36:16.165Z,6.17
2018-04-02T05:38:44.465Z,7.73
2018-04-02T05:41:12.752Z,5.33
2018-04-02T05:43:41.057Z,5.53
2018-04-02T05:46:09.348Z,5.07
2018-04-02T05:48:37.630Z,6.67
2018-04-02T05:51:05.920Z,8.70
2018-04-02T05:53:34.189Z,10.33
2018-04-02T05:56:03.818Z,4.53
2018-04-02T05:58:32.088Z,4.37
2018-04-02T06:01:01.395Z,5.20
2018-04-02T06:03:29.703Z,4.87
2018-04-02T06:05:58.835Z,4.47
2018-04-02T06:08:27.109Z,5.93
2018-04-02T06:10:55.409Z,3.87
2018-04-02T06:13:23.766Z,4.30
2018-04-02T06:15:52.880Z,5.37
2018-04-02T06:18:22.006Z,5.70
2018-04-02T06:20:50.251Z,5.73
2018-04-02T06:23:18.495Z,7.07
2018-04-02T06:25:46.776Z,4.20
2018-04-02T06:28:15.089Z,5.30
2018-04-02T06:30:43.335Z,5.40
2018-04-02T06:33:12.383Z,4.47
2018-04-02T06:35:40.655Z,5.03
2018-04-02T06:38:08.944Z,6.53
2018-04-02T06:40:37.200Z,5.27
2018-04-02T06:43:06.235Z,4.13
2018-04-02T06:45:34.506Z,4.27
2018-04-02T06:48:03.544Z,3.60
2018-04-02T06:50:31.815Z,4.50
2018-04-02T06:53:00.094Z,4.53
2018-04-02T06:55:29.103Z,5.57
2018-04-02T06:57:57.406Z,4.93
2018-04-02T07:00:25.712Z,6.50
2018-04-02T07:02:54.028Z,3.93
2018-04-02T07:05:22.288Z,4.37
2018-04-02T07:07:50.588Z,4.77
2018-04-02T07:10:18.832Z,4.83
2018-04-02T07:12:47.871Z,6.30
2018-04-02T07:15:16.146Z,4.10
2018-04-02T07:17:44.398Z,5.03
2018-04-02T07:20:12.720Z,6.37
2018-04-02T07:22:41.736Z,5.17
2018-04-02T07:25:10.017Z,5.90
2018-04-02T07:27:38.295Z,4.57
2018-04-02T07:30:07.409Z,4.33
2018-04-02T07:32:35.764Z,4.20
2018-04-02T07:35:04.106Z,4.97
2018-04-02T07:37:32.350Z,3.60
2018-04-02T07:40:00.628Z,4.43
2018-04-02T07:42:28.891Z,4.13
2018-04-02T07:44:57.188Z,4.20
2018-04-02T07:47:25.585Z,4.07
2018-04-02T07:49:53.866Z,3.73
2018-04-02T07:52:22.133Z,5.10
2018-04-02T07:54:50.408Z,4.63
2018-04-02T07:57:18.664Z,5.90
2018-04-02T07:59:47.968Z,4.10
2018-04-02T08:02:16.232Z,4.13
2018-04-02T08:04:44.486Z,4.03
2018-04-02T08:07:12.751Z,4.90
2018-04-02T08:09:41.070Z,4.00
2018-04-02T08:12:09.321Z,5.07
2018-04-02T08:14:37.593Z,3.97
2018-04-02T08:17:05.844Z,5.60
2018-04-02T08:19:34.116Z,4.73
2018-04-02T08:22:02.375Z,4.40
2018-04-02T08:24:30.646Z,3.67
2018-04-02T08:26:58.907Z,4.87
2018-04-02T08:29:27.278Z,3.93
2018-04-02T08:31:55.625Z,3.67
2018-04-02T08:34:24.003Z,6.90
2018-04-02T08:36:52.276Z,3.93
2018-04-02T08:39:20.558Z,3.80
2018-04-02T08:41:48.835Z,4.30
2018-04-02T08:44:17.887Z,3.57
2018-04-02T08:46:46.142Z,3.03
2018-04-02T08:49:14.400Z,5.20
2018-04-02T08:51:43.511Z,2.23
2018-04-02T08:54:12.763Z,4.60
2018-04-02T08:56:41.099Z,2.17
2018-04-02T08:59:09.640Z,3.33
2018-04-02T09:01:38.090Z,3.37
2018-04-02T09:04:06.386Z,2.83
2018-04-02T09:06:34.716Z,4.40
2018-04-02T09:09:03.016Z,4.60
2018-04-02T09:11:31.578Z,3.40
2018-04-02T09:14:00.632Z,3.97
2018-04-02T09:16:29.784Z,2.53
2018-04-02T09:18:58.986Z,3.77
2018-04-02T09:21:29.325Z,3.03
2018-04-02T09:23:58.583Z,3.30
2018-04-02T09:26:27.101Z,2.57
2018-04-02T09:28:55.658Z,2.23
2018-04-02T09:31:24.249Z,3.10
2018-04-02T09:33:52.569Z,4.00
2018-04-02T09:36:20.968Z,3.37
2018-04-02T09:38:50.858Z,2.70
2018-04-02T09:41:19.246Z,2.30
2018-04-02T09:43:47.733Z,3.60
2018-04-02T09:46:16.936Z,4.80
2018-04-02T09:48:46.089Z,3.07
2018-04-02T09:51:14.521Z,2.67
2018-04-02T09:53:42.873Z,2.10
2018-04-02T09:56:11.263Z,2.17
2018-04-02T09:58:39.712Z,3.23
2018-04-02T10:01:12.631Z,2.33
2018-04-02T10:03:40.927Z,2.37
2018-04-02T10:06:09.273Z,2.70
2018-04-02T10:08:37.563Z,2.07
2018-04-02T10:11:06.620Z,1.90
2018-04-02T10:13:34.935Z,1.67
2018-04-02T10:16:04.621Z,3.33
2018-04-02T10:18:32.908Z,2.10
2018-04-02T10:21:01.184Z,1.23
2018-04-02T10:23:30.337Z,2.63
2018-04-02T10:25:58.748Z,3.20
2018-04-02T10:28:27.114Z,1.97
2018-04-02T10:30:55.418Z,1.97
2018-04-02T10:33:23.734Z,2.37
2018-04-02T10:35:52.066Z,1.87
2018-04-02T10:38:20.410Z,1.70
2018-04-02T10:40:49.475Z,2.37
2018-04-02T10:43:17.839Z,2.43
2018-04-02T10:45:46.050Z,1.47
2018-04-02T10:48:14.338Z,3.50
2018-04-02T10:50:42.616Z,6.27
2018-04-02T10:53:10.906Z,2.23
2018-04-02T10:55:40.004Z,2.50
2018-04-02T10:58:09.053Z,2.97
2018-04-02T11:00:37.325Z,4.30
2018-04-02T11:03:05.617Z,1.40
2018-04-02T11:05:33.885Z,1.87
2018-04-02T11:08:02.242Z,1.80
2018-04-02T11:10:30.517Z,2.73
2018-04-02T11:12:58.837Z,2.03
2018-04-02T11:15:27.892Z,2.57
2018-04-02T11:17:56.265Z,1.47
2018-04-02T11:20:24.524Z,4.63
2018-04-02T11:22:53.605Z,3.10
2018-04-02T11:25:21.899Z,1.57
2018-04-02T11:27:51.692Z,2.43
2018-04-02T11:30:20.052Z,2.03
2018-04-02T11:32:49.092Z,1.73
2018-04-02T11:35:17.404Z,3.03
2018-04-02T11:37:45.742Z,1.37
2018-04-02T11:40:14.011Z,2.13
2018-04-02T11:42:43.808Z,1.93
2018-04-02T11:45:12.068Z,2.80
2018-04-02T11:47:41.118Z,1.90
2018-04-02T11:50:09.404Z,1.73
2018-04-02T11:52:37.672Z,1.40
2018-04-02T11:55:06.072Z,3.03
2018-04-02T11:57:34.368Z,1.80
2018-04-02T12:00:03.774Z,2.20
2018-04-02T12:02:32.031Z,2.30
2018-04-02T12:05:00.334Z,1.53
2018-04-02T12:07:28.673Z,1.40
2018-04-02T12:09:57.043Z,1.50
2018-04-02T12:12:25.355Z,2.83
2018-04-02T12:14:54.421Z,1.40
2018-04-02T12:17:22.695Z,1.47
2018-04-02T12:19:51.009Z,2.23
2018-04-02T12:22:19.283Z,2.33
2018-04-02T12:24:47.576Z,2.57
2018-04-02T12:27:16.642Z,4.03
2018-04-02T12:29:45.687Z,1.77
2018-04-02T12:32:14.714Z,1.77
2018-04-02T12:34:43.015Z,1.50
2018-04-02T12:37:11.311Z,1.97
2018-04-02T12:39:39.616Z,1.37
2018-04-02T12:42:08.724Z,3.37
2018-04-02T12:44:37.790Z,1.87
2018-04-02T12:47:06.071Z,2.17
2018-04-02T12:49:34.360Z,2.77
2018-04-02T12:52:02.774Z,1.10
2018-04-02T12:54:31.042Z,1.47
2018-04-02T12:56:59.317Z,1.60
2018-04-02T12:59:27.659Z,2.00
2018-04-02T13:01:55.965Z,3.10
2018-04-02T13:04:24.309Z,2.30
2018-04-02T13:06:52.586Z,1.93
2018-04-02T13:09:20.885Z,2.13
2018-04-02T13:11:49.174Z,1.57
2018-04-02T13:14:17.473Z,2.93
2018-04-02T13:16:45.802Z,1.10
2018-04-02T13:19:14.144Z,1.43
2018-04-02T13:21:42.384Z,1.60
2018-04-02T13:24:11.511Z,1.53
2018-04-02T13:26:39.806Z,2.37
2018-04-02T13:29:08.060Z,1.73
2018-04-02T13:31:36.353Z,1.30
2018-04-02T13:34:04.612Z,1.20
2018-04-02T13:36:32.900Z,1.23
2018-04-02T13:39:01.181Z,2.13
2018-04-02T13:41:29.527Z,2.53
2018-04-02T13:43:57.939Z,1.67
2018-04-02T13:46:26.267Z,1.90
2018-04-02T13:48:55.708Z,1.53
2018-04-02T13:51:24.806Z,1.77
2018-04-02T13:53:53.115Z,1.23
2018-04-02T13:56:22.172Z,1.10
2018-04-02T13:58:50.467Z,2.33
2018-04-02T14:01:18.836Z,0.90
2018-04-02T14:03:47.152Z,1.10
2018-04-02T14:06:16.215Z,1.93
2018-04-02T14:08:45.244Z,1.97
2018-04-02T14:11:13.563Z,1.87
2018-04-02T14:13:41.825Z,0.93
2018-04-02T14:16:10.125Z,1.20
2018-04-02T14:18:38.407Z,1.40
2018-04-02T14:21:06.703Z,0.90
2018-04-02T14:23:34.969Z,1.20
2018-04-02T14:26:03.273Z,0.90
2018-04-02T14:28:32.337Z,1.23
2018-04-02T14:31:00.619Z,1.10
2018-04-02T14:33:28.985Z,1.90
2018-04-02T14:35:57.330Z,2.03
2018-04-02T14:38:26.478Z,1.47
2018-04-02T14:40:54.755Z,1.07
2018-04-02T14:43:23.068Z,1.10
2018-04-02T14:45:51.358Z,1.80
2018-04-02T14:48:19.657Z,1.43
2018-04-02T14:50:47.947Z,0.80
2018-04-02T14:53:16.234Z,0.77
2018-04-02T14:55:44.487Z,1.03
2018-04-02T14:58:12.777Z,0.90
2018-04-02T15:00:41.047Z,1.10
2018-04-02T15:03:09.323Z,1.23
2018-04-02T15:05:38.348Z,1.80
2018-04-02T15:08:06.656Z,1.07
2018-04-02T15:10:34.938Z,1.03
2018-04-02T15:13:03.223Z,1.10
2018-04-02T15:15:31.533Z,1.03
2018-04-02T15:17:59.835Z,1.43
2018-04-02T15:20:28.144Z,1.33
2018-04-02T15:22:56.458Z,0.97
2018-04-02T15:25:24.763Z,0.80
2018-04-02T15:27:53.114Z,1.20
2018-04-02T15:30:21.395Z,0.67
2018-04-02T15:32:50.459Z,2.83
2018-04-02T15:35:18.766Z,1.27
2018-04-02T15:37:47.953Z,1.30
2018-04-02T15:40:16.231Z,0.80
2018-04-02T15:42:45.321Z,0.90
2018-04-02T15:45:14.734Z,1.80
2018-04-02T15:47:43.826Z,1.00
2018-04-02T15:50:12.084Z,0.67
2018-04-02T15:52:40.352Z,0.80
2018-04-02T15:55:08.644Z,2.30
2018-04-02T15:57:36.916Z,1.00
2018-04-02T16:00:05.979Z,2.50
2018-04-02T16:02:34.238Z,2.83
2018-04-02T16:05:02.504Z,1.00
2018-04-02T16:07:31.566Z,1.00
2018-04-02T16:09:59.855Z,2.33
2018-04-02T16:12:28.187Z,1.50
2018-04-02T16:14:58.025Z,1.00
2018-04-02T16:17:27.141Z,0.80
2018-04-02T16:19:55.676Z,1.37
2018-04-02T16:22:24.037Z,1.07
2018-04-02T16:24:52.346Z,1.00
2018-04-02T16:27:20.632Z,3.60
2018-04-02T16:29:48.906Z,1.93
2018-04-02T16:32:17.222Z,2.03
2018-04-02T16:34:45.516Z,0.93
2018-04-02T16:37:13.772Z,1.07
2018-04-02T16:39:42.071Z,1.10
2018-04-02T16:42:10.432Z,1.67
2018-04-02T16:44:39.476Z,2.77
2018-04-02T16:47:07.740Z,23.20
2018-04-02T16:49:36.034Z,1.13
2018-04-02T16:52:04.387Z,1.50
2018-04-02T16:54:33.454Z,6.13
2018-04-02T16:57:01.744Z,1.30
2018-04-02T16:59:30.164Z,1.27
2018-04-02T17:01:58.485Z,1.10
2018-04-02T17:04:27.566Z,2.10
2018-04-02T17:06:56.020Z,2.10
2018-04-02T17:09:24.356Z,1.13
2018-04-02T17:11:52.625Z,1.27
2018-04-02T17:14:20.887Z,1.90
2018-04-02T17:16:49.224Z,1.37
2018-04-02T17:19:17.595Z,1.00
2018-04-02T17:21:46.728Z,1.80
2018-04-02T17:24:15.000Z,3.03
2018-04-02T17:26:43.291Z,1.40
2018-04-02T17:29:11.659Z,1.83
2018-04-02T17:31:39.952Z,1.70
2018-04-02T17:34:08.223Z,1.60
2018-04-02T17:36:36.540Z,1.53
2018-04-02T17:39:04.822Z,1.50
2018-04-02T17:41:33.106Z,1.67
2018-04-02T17:44:01.371Z,1.00
2018-04-02T17:46:29.670Z,1.37
2018-04-02T17:48:57.941Z,1.67
2018-04-02T17:51:26.278Z,1.10
2018-04-02T17:53:54.549Z,1.20
2018-04-02T17:56:22.824Z,1.27
2018-04-02T17:58:51.090Z,1.43
2018-04-02T18:01:20.881Z,1.40
2018-04-02T18:03:49.136Z,2.70
2018-04-02T18:06:17.413Z,3.83
2018-04-02T18:08:45.698Z,1.40
2018-04-02T18:11:14.002Z,1.77
2018-04-02T18:13:42.287Z,1.77
2018-04-02T18:16:10.714Z,1.20
2018-04-02T18:18:40.479Z,1.30
2018-04-02T18:21:09.535Z,1.30
2018-04-02T18:23:38.568Z,2.43
2018-04-02T18:26:08.435Z,1.10
2018-04-02T18:28:36.715Z,4.60
2018-04-02T18:31:05.753Z,3.70
2018-04-02T18:33:34.016Z,3.77
2018-04-02T18:36:02.323Z,4.57
2018-04-02T18:38:30.570Z,2.93
2018-04-02T18:40:59.702Z,4.13
2018-04-02T18:43:27.976Z,2.43
2018-04-02T18:45:57.056Z,4.23
2018-04-02T18:48:25.329Z,4.60
2018-04-02T18:50:53.694Z,3.87
2018-04-02T18:53:22.700Z,7.40
2018-04-02T18:55:50.960Z,2.73
2018-04-02T18:58:20.009Z,2.73
2018-04-02T19:00:48.259Z,6.80
2018-04-02T19:03:17.354Z,7.60
2018-04-02T19:05:45.638Z,7.33
2018-04-02T19:08:13.917Z,3.57
2018-04-02T19:10:42.177Z,4.10
2018-04-02T19:13:10.465Z,3.20
2018-04-02T19:15:38.731Z,2.70
2018-04-02T19:18:07.018Z,1.90
2018-04-02T19:20:35.292Z,4.47
2018-04-02T19:23:04.332Z,1.30
2018-04-02T19:25:32.613Z,2.27
2018-04-02T19:28:00.895Z,1.50
2018-04-02T19:30:29.162Z,1.30
2018-04-02T19:32:58.228Z,1.63
2018-04-02T19:35:26.480Z,3.67
2018-04-02T19:37:54.833Z,2.97
2018-04-02T19:40:23.867Z,1.60
2018-04-02T19:42:52.180Z,1.90
2018-04-02T19:45:20.498Z,1.67
2018-04-02T19:47:48.788Z,1.83
2018-04-02T19:50:17.051Z,3.17
2018-04-02T19:52:45.409Z,3.80
2018-04-02T19:55:13.684Z,1.60
2018-04-02T19:57:42.741Z,3.03
2018-04-02T20:00:10.998Z,1.97
2018-04-02T20:02:40.056Z,2.20
2018-04-02T20:05:08.346Z,2.00
2018-04-02T20:07:36.622Z,2.97
2018-04-02T20:10:04.942Z,1.40
2018-04-02T20:12:33.198Z,1.90
2018-04-02T20:15:01.493Z,2.60
2018-04-02T20:17:29.748Z,2.53
2018-04-02T20:19:58.042Z,1.30
2018-04-02T20:22:26.331Z,2.67
2018-04-02T20:24:54.607Z,2.07
2018-04-02T20:27:22.872Z,2.37
2018-04-02T20:29:51.175Z,1.30
2018-04-02T20:32:20.211Z,2.43
2018-04-02T20:34:49.315Z,1.67
2018-04-02T20:37:17.573Z,1.83
2018-04-02T20:39:45.891Z,2.90
2018-04-02T20:42:14.182Z,1.80
2018-04-02T20:44:42.452Z,1.50
2018-04-02T20:47:11.484Z,1.93
2018-04-02T20:49:39.760Z,1.50
2018-04-02T20:52:08.029Z,18.27
2018-04-02T20:54:36.313Z,44.50
2018-04-02T20:57:05.363Z,3.03
2018-04-02T20:59:33.716Z,1.60
2018-04-02T21:02:01.989Z,2.27
2018-04-02T21:04:30.373Z,2.17
2018-04-02T21:06:59.418Z,7.73
2018-04-02T21:09:29.293Z,4.50
2018-04-02T21:12:00.526Z,2.43
2018-04-02T21:14:29.643Z,1.50
2018-04-02T21:16:57.928Z,2.07
2018-04-02T21:19:26.283Z,3.73
2018-04-02T21:21:55.337Z,1.53
2018-04-02T21:24:23.741Z,2.03
2018-04-02T21:26:52.032Z,2.50
2018-04-02T21:29:20.310Z,2.13
2018-04-02T21:31:48.584Z,2.60
2018-04-02T21:34:17.600Z,1.37
2018-04-02T21:36:45.983Z,1.77
2018-04-02T21:39:14.268Z,2.10
2018-04-02T21:41:42.548Z,2.57
2018-04-02T21:44:10.807Z,1.57
2018-04-02T21:46:39.863Z,1.90
2018-04-02T21:49:08.169Z,1.97
2018-04-02T21:51:36.431Z,3.17
2018-04-02T21:54:04.697Z,2.90
2018-04-02T21:56:33.771Z,2.53
2018-04-02T21:59:02.140Z,1.73
2018-04-02T22:01:30.433Z,1.90
2018-04-02T22:03:58.703Z,1.77
2018-04-02T22:06:44.864Z,2.40
2018-04-02T22:09:13.111Z,2.30
2018-04-02T22:11:41.388Z,2.67
2018-04-02T22:14:09.646Z,1.70
2018-04-02T22:16:38.703Z,1.90
2018-04-02T22:19:06.962Z,2.40
2018-04-02T22:21:36.071Z,1.70
2018-04-02T22:24:05.864Z,2.63
2018-04-02T22:26:34.916Z,1.70
2018-04-02T22:29:03.218Z,2.07
2018-04-02T22:31:31.486Z,2.83
2018-04-02T22:33:59.767Z,2.43
2018-04-02T22:36:28.832Z,1.97
2018-04-02T22:38:57.244Z,1.60
2018-04-02T22:41:26.318Z,1.67
2018-04-02T22:43:54.637Z,1.80
2018-04-02T22:46:22.969Z,2.10
2018-04-02T22:48:51.235Z,1.87
2018-04-02T22:51:20.287Z,1.53
2018-04-02T22:53:48.541Z,2.53
2018-04-02T22:56:16.818Z,2.23
2018-04-02T22:58:45.876Z,2.13
2018-04-02T23:01:14.188Z,2.13
2018-04-02T23:03:43.227Z,3.83
2018-04-02T23:06:11.510Z,2.00
2018-04-02T23:08:40.902Z,3.10
2018-04-02T23:11:10.265Z,1.90
2018-04-02T23:13:38.535Z,1.90
2018-04-02T23:16:07.725Z,1.60
2018-04-02T23:18:36.002Z,2.30
2018-04-02T23:21:04.253Z,2.17
2018-04-02T23:23:32.544Z,2.03
2018-04-02T23:26:00.823Z,4.00
2018-04-02T23:28:29.108Z,2.17
2018-04-02T23:30:57.470Z,2.10
2018-04-02T23:33:27.300Z,1.97
2018-04-02T23:35:56.430Z,1.57
2018-04-02T23:38:24.742Z,2.77
2018-04-02T23:40:53.000Z,1.40
2018-04-02T23:43:21.270Z,1.60
2018-04-02T23:45:50.296Z,1.87
2018-04-02T23:48:18.607Z,1.50
2018-04-02T23:50:46.858Z,1.70
2018-04-02T23:53:15.935Z,1.50
2018-04-02T23:55:44.983Z,6.30
2018-04-02T23:58:14.016Z,1.40
